createdAt,value
2023-05-14T00:04:07.297Z,101558.56
2023-05-14T00:09:08.784Z,101559.44
2023-05-14T00:14:10.270Z,101565.19
2023-05-14T00:19:11.792Z,101554.72
2023-05-14T00:24:13.311Z,101553.59
2023-05-14T00:29:14.778Z,101551.63
2023-05-14T00:34:16.159Z,101554.81
2023-05-14T00:39:17.580Z,101543.13
2023-05-14T00:44:19.054Z,101541.31
2023-05-14T00:49:21.132Z,101535.16
2023-05-14T00:54:22.833Z,101540.16
2023-05-14T00:59:24.256Z,101541.06
2023-05-14T01:04:25.851Z,101542.69
2023-05-14T01:09:42.846Z,101543.50
2023-05-14T01:15:09.270Z,101547.81
2023-05-14T01:20:11.560Z,101544.50
2023-05-14T01:25:13.042Z,101543.34
2023-05-14T01:30:22.999Z,101538.72
2023-05-14T01:35:27.507Z,101544.47
2023-05-14T01:40:31.213Z,101536.69
2023-05-14T01:45:35.692Z,101541.63
2023-05-14T01:50:37.162Z,101540.63
2023-05-14T01:55:38.696Z,101551.56
2023-05-14T02:00:40.097Z,101542.78
2023-05-14T02:05:41.518Z,101539.34
2023-05-14T02:10:42.928Z,101541.78
2023-05-14T02:15:44.332Z,101538.84
2023-05-14T02:20:46.636Z,101542.81
2023-05-14T02:25:48.026Z,101543.28
2023-05-14T02:30:49.491Z,101544.88
2023-05-14T02:35:50.915Z,101539.00
2023-05-14T02:40:52.426Z,101536.84
2023-05-14T02:45:53.906Z,101548.75
2023-05-14T02:50:55.381Z,101550.25
2023-05-14T02:55:56.800Z,101548.38
2023-05-14T03:00:58.787Z,101555.97
2023-05-14T03:06:00.599Z,101546.84
2023-05-14T03:11:02.607Z,101551.88
2023-05-14T03:16:04.168Z,101552.34
2023-05-14T03:21:05.702Z,101552.28
2023-05-14T03:26:07.192Z,101541.88
2023-05-14T03:31:08.674Z,101541.59
2023-05-14T03:36:10.189Z,101536.34
2023-05-14T03:41:11.780Z,101538.78
2023-05-14T03:46:13.299Z,101530.88
2023-05-14T03:51:14.730Z,101530.59
2023-05-14T03:56:16.173Z,101534.84
2023-05-14T04:01:17.574Z,101527.09
2023-05-14T04:06:19.391Z,101517.28
2023-05-14T04:11:21.600Z,101514.72
2023-05-14T04:16:23.295Z,101515.56
2023-05-14T04:21:24.866Z,101512.25
2023-05-14T04:26:26.562Z,101514.75
2023-05-14T04:31:28.164Z,101512.97
2023-05-14T04:36:29.603Z,101506.47
2023-05-14T04:41:31.005Z,101497.59
2023-05-14T04:46:32.508Z,101478.56
2023-05-14T04:51:34.006Z,101471.88
2023-05-14T04:56:35.574Z,101468.44
2023-05-14T05:01:37.114Z,101471.59
2023-05-14T05:06:38.707Z,101467.56
2023-05-14T05:11:40.095Z,101467.53
2023-05-14T05:16:41.553Z,101461.28
2023-05-14T05:21:43.025Z,101493.25
2023-05-14T05:26:44.434Z,101488.53
2023-05-14T05:31:46.212Z,101493.31
2023-05-14T05:36:47.700Z,101487.41
2023-05-14T05:41:49.274Z,101485.94
2023-05-14T05:46:51.121Z,101481.84
2023-05-14T05:51:52.666Z,101473.91
2023-05-14T05:56:54.109Z,101482.16
2023-05-14T06:01:55.657Z,101486.38
2023-05-14T06:06:57.620Z,101488.75
2023-05-14T06:11:59.043Z,101493.72
2023-05-14T06:17:00.889Z,101503.66
2023-05-14T06:22:02.852Z,101503.63
2023-05-14T06:27:04.365Z,101512.91
2023-05-14T06:32:06.412Z,101507.50
2023-05-14T06:37:09.447Z,101513.66
2023-05-14T06:42:10.916Z,101523.34
2023-05-14T06:47:12.386Z,101513.59
2023-05-14T06:52:13.775Z,101512.59
2023-05-14T06:57:15.270Z,101498.06
2023-05-14T07:02:16.728Z,101478.56
2023-05-14T07:07:20.736Z,101477.28
2023-05-14T07:12:22.258Z,101465.81
2023-05-14T07:17:24.262Z,101455.69
2023-05-14T07:22:25.836Z,101466.56
2023-05-14T07:27:27.215Z,101463.13
2023-05-14T07:32:28.623Z,101458.44
2023-05-14T07:37:30.171Z,101452.41
2023-05-14T07:42:36.396Z,101449.97
2023-05-14T07:47:39.272Z,101439.63
2023-05-14T07:52:40.820Z,101426.69
2023-05-14T07:57:42.290Z,101420.72
2023-05-14T08:02:44.739Z,101424.22
2023-05-14T08:07:46.453Z,101431.19
2023-05-14T08:12:47.953Z,101419.81
2023-05-14T08:17:49.460Z,101412.72
2023-05-14T08:22:50.870Z,101398.63
2023-05-14T08:27:54.094Z,101405.47
2023-05-14T08:32:55.569Z,101397.41
2023-05-14T08:37:57.153Z,101401.56
2023-05-14T08:42:58.946Z,101406.69
2023-05-14T08:48:02.092Z,101456.44
2023-05-14T08:53:03.712Z,101482.31
2023-05-14T08:58:05.129Z,101504.19
2023-05-14T09:03:07.122Z,101516.72
2023-05-14T09:08:08.570Z,101509.28
2023-05-14T09:13:10.253Z,101518.53
2023-05-14T09:18:11.856Z,101509.19
2023-05-14T09:23:13.586Z,101503.84
2023-05-14T09:28:17.263Z,101498.44
2023-05-14T09:33:31.764Z,101509.41
2023-05-14T09:38:33.794Z,101501.03
2023-05-14T09:43:36.424Z,101497.63
2023-05-14T09:48:38.078Z,101514.59
2023-05-14T09:53:41.238Z,101563.56
2023-05-14T09:58:42.717Z,101594.50
2023-05-14T10:03:44.466Z,101593.41
2023-05-14T10:08:48.582Z,101593.03
2023-05-14T10:14:07.664Z,101585.50
2023-05-14T10:19:11.071Z,101587.28
2023-05-14T10:24:13.027Z,101577.13
2023-05-14T10:29:14.733Z,101570.50
2023-05-14T10:34:38.264Z,101563.66
2023-05-14T10:40:06.501Z,101550.41
2023-05-14T10:45:10.807Z,101547.78
2023-05-14T10:50:16.331Z,101521.41
2023-05-14T10:55:17.855Z,101515.97
2023-05-14T11:00:19.644Z,101513.78
2023-05-14T11:05:21.203Z,101528.00
2023-05-14T11:10:23.989Z,101518.75
2023-05-14T11:15:26.815Z,101515.66
2023-05-14T11:20:28.888Z,101514.44
2023-05-14T11:25:30.708Z,101508.75
2023-05-14T11:30:32.243Z,101509.03
2023-05-14T11:35:33.676Z,101499.94
2023-05-14T11:40:36.225Z,101489.50
2023-05-14T11:45:37.842Z,101494.66
2023-05-14T11:50:40.688Z,101490.84
2023-05-14T11:55:42.294Z,101482.88
2023-05-14T12:00:45.596Z,101494.25
2023-05-14T12:06:01.148Z,101481.03
2023-05-14T12:11:02.664Z,101474.81
2023-05-14T12:16:05.402Z,101475.03
2023-05-14T12:21:09.849Z,101454.47
2023-05-14T12:26:12.386Z,101447.16
2023-05-14T12:31:16.593Z,101453.00
2023-05-14T12:36:21.652Z,101456.28
2023-05-14T12:41:23.764Z,101439.56
2023-05-14T12:46:27.065Z,101443.88
2023-05-14T12:51:28.737Z,101454.31
2023-05-14T12:56:31.676Z,101454.59
2023-05-14T13:01:33.336Z,101441.78
2023-05-14T13:06:35.125Z,101443.34
2023-05-14T13:11:36.955Z,101439.03
2023-05-14T13:16:38.713Z,101437.47
2023-05-14T13:21:40.331Z,101431.91
2023-05-14T13:26:41.753Z,101432.25
2023-05-14T13:31:43.221Z,101435.38
2023-05-14T13:36:44.779Z,101420.84
2023-05-14T13:41:46.389Z,101414.41
2023-05-14T13:46:48.135Z,101410.69
2023-05-14T13:51:49.793Z,101414.47
2023-05-14T13:56:51.990Z,101405.31
2023-05-14T14:01:53.512Z,101399.88
2023-05-14T14:06:55.462Z,101391.84
2023-05-14T14:16:58.394Z,101399.13
2023-05-14T14:21:59.862Z,101384.63
2023-05-14T14:27:02.409Z,101389.78
2023-05-14T14:32:04.382Z,101382.81
2023-05-14T14:37:06.287Z,101384.75
2023-05-14T14:42:07.796Z,101380.97
2023-05-14T14:47:09.240Z,101376.97
2023-05-14T14:52:10.696Z,101373.16
2023-05-14T14:57:12.146Z,101377.22
2023-05-14T15:02:13.925Z,101376.44
2023-05-14T15:07:17.330Z,101374.44
2023-05-14T15:12:19.137Z,101366.56
2023-05-14T15:17:20.864Z,101370.91
2023-05-14T15:22:22.453Z,101368.53
2023-05-14T15:27:23.844Z,101372.16
2023-05-14T15:32:27.050Z,101370.47
2023-05-14T15:37:35.663Z,101367.19
2023-05-14T15:42:38.741Z,101359.25
2023-05-14T15:47:41.797Z,101353.19
2023-05-14T15:52:43.287Z,101341.09
2023-05-14T15:57:44.751Z,101341.09
2023-05-14T16:02:46.296Z,101343.75
2023-05-14T16:07:47.761Z,101344.88
2023-05-14T16:12:49.199Z,101331.91
2023-05-14T16:17:50.737Z,101327.56
2023-05-14T16:22:52.462Z,101340.94
2023-05-14T16:27:54.359Z,101337.44
2023-05-14T16:32:55.766Z,101342.66
2023-05-14T16:37:57.261Z,101340.28
2023-05-14T16:42:58.703Z,101322.09
2023-05-14T16:48:01.284Z,101329.13
2023-05-14T16:53:02.942Z,101327.38
2023-05-14T16:58:04.591Z,101331.75
2023-05-14T17:03:07.102Z,101328.31
2023-05-14T17:08:08.600Z,101333.75
2023-05-14T17:13:10.051Z,101354.72
2023-05-14T17:18:12.091Z,101348.72
2023-05-14T17:23:13.748Z,101354.91
2023-05-14T17:28:15.276Z,101351.50
2023-05-14T17:33:17.118Z,101307.03
2023-05-14T17:38:18.557Z,101245.94
2023-05-14T17:43:19.974Z,101215.44
2023-05-14T17:48:22.702Z,101201.56
2023-05-14T17:53:24.178Z,101182.47
2023-05-14T17:58:25.819Z,101176.38
2023-05-14T18:03:27.538Z,101174.72
2023-05-14T18:08:29.118Z,101163.50
2023-05-14T18:13:30.613Z,101160.19
2023-05-14T18:18:32.154Z,101152.50
2023-05-14T18:23:33.689Z,101151.63
2023-05-14T18:28:36.248Z,101151.66
2023-05-14T18:33:37.726Z,101143.06
2023-05-14T18:38:40.725Z,101141.38
2023-05-14T18:43:42.208Z,101134.47
2023-05-14T18:48:43.824Z,101153.66
2023-05-14T18:53:45.356Z,101157.13
2023-05-14T18:58:49.505Z,101154.53
2023-05-14T19:03:52.929Z,101163.22
2023-05-14T19:08:54.584Z,101157.97
2023-05-14T19:13:57.120Z,101163.19
2023-05-14T19:18:58.752Z,101173.56
2023-05-14T19:24:00.640Z,101176.13
2023-05-14T19:29:02.305Z,101181.25
2023-05-14T19:34:03.992Z,101186.31
2023-05-14T19:39:05.970Z,101187.09
2023-05-14T19:44:07.785Z,101191.41
2023-05-14T19:49:09.323Z,101192.94
2023-05-14T19:54:11.109Z,101195.38
2023-05-14T19:59:15.724Z,101198.84
2023-05-14T20:04:17.915Z,101198.69
2023-05-14T20:09:22.202Z,101195.13
2023-05-14T20:14:23.872Z,101200.31
2023-05-14T20:19:26.735Z,101190.53
2023-05-14T20:24:28.670Z,101199.94
2023-05-14T20:29:30.319Z,101199.97
2023-05-14T20:34:31.916Z,101197.22
2023-05-14T20:39:33.562Z,101193.59
2023-05-14T20:44:36.415Z,101193.50
2023-05-14T20:49:37.936Z,101196.00
2023-05-14T20:54:39.392Z,101199.47
2023-05-14T20:59:41.120Z,101193.28
2023-05-14T21:04:42.932Z,101197.44
2023-05-14T21:09:46.493Z,101197.44
2023-05-14T21:14:47.991Z,101190.44
2023-05-14T21:19:49.610Z,101200.66
2023-05-14T21:24:51.396Z,101206.56
2023-05-14T21:29:53.158Z,101204.91
2023-05-14T21:34:54.710Z,101214.38
2023-05-14T21:39:56.438Z,101211.72
2023-05-14T21:44:58.052Z,101217.69
2023-05-14T21:49:59.706Z,101212.31
2023-05-14T21:55:01.445Z,101213.00
2023-05-14T22:00:05.384Z,101218.94
2023-05-14T22:05:07.081Z,101222.31
2023-05-14T22:10:10.138Z,101231.78
2023-05-14T22:15:12.385Z,101228.78
2023-05-14T22:20:14.305Z,101225.38
2023-05-14T22:25:15.866Z,101220.28
2023-05-14T22:30:17.360Z,101208.97
2023-05-14T22:35:18.962Z,101207.03
2023-05-14T22:40:20.563Z,101212.84
2023-05-14T22:45:22.249Z,101214.47
2023-05-14T22:50:24.297Z,101195.56
2023-05-14T22:55:26.076Z,101184.97
2023-05-14T23:00:28.032Z,101179.78
2023-05-14T23:05:29.514Z,101188.38
2023-05-14T23:10:31.231Z,101182.22
2023-05-14T23:15:32.990Z,101157.97
2023-05-14T23:20:34.396Z,101153.66
2023-05-14T23:25:35.940Z,101146.66
2023-05-14T23:30:37.375Z,101138.69
2023-05-14T23:35:39.296Z,101149.78
2023-05-14T23:40:40.764Z,101131.66
2023-05-14T23:45:42.309Z,101126.34
2023-05-14T23:50:44.039Z,101127.91
2023-05-14T23:55:45.508Z,101109.94
